sensor_id;sensor_type;location;lat;lon;timestamp;P1;durP1;ratioP1;P2;durP2;ratioP2
72533;SDS011;60553;0.000;0.000;2022-07-09T00:01:11;2.93;;;1.17;;
72533;SDS011;60553;0.000;0.000;2022-07-09T00:03:36;2.53;;;1.50;;
72533;SDS011;60553;0.000;0.000;2022-07-09T00:06:02;3.80;;;1.40;;
72533;SDS011;60553;0.000;0.000;2022-07-09T00:08:27;2.50;;;1.23;;
72533;SDS011;60553;0.000;0.000;2022-07-09T00:10:53;5.60;;;1.50;;
72533;SDS011;60553;0.000;0.000;2022-07-09T00:13:18;3.40;;;1.30;;
72533;SDS011;60553;0.000;0.000;2022-07-09T00:15:44;2.87;;;1.77;;
72533;SDS011;60553;0.000;0.000;2022-07-09T00:18:09;2.55;;;1.20;;
72533;SDS011;60553;0.000;0.000;2022-07-09T00:20:34;5.67;;;1.60;;
72533;SDS011;60553;0.000;0.000;2022-07-09T00:23:00;2.23;;;1.13;;
72533;SDS011;60553;0.000;0.000;2022-07-09T00:25:25;4.47;;;1.27;;
72533;SDS011;60553;0.000;0.000;2022-07-09T00:27:50;4.40;;;1.30;;
72533;SDS011;60553;0.000;0.000;2022-07-09T00:30:15;2.23;;;1.10;;
72533;SDS011;60553;0.000;0.000;2022-07-09T00:32:41;2.17;;;1.30;;
72533;SDS011;60553;0.000;0.000;2022-07-09T00:35:06;2.25;;;1.17;;
72533;SDS011;60553;0.000;0.000;2022-07-09T00:37:32;2.33;;;1.30;;
72533;SDS011;60553;0.000;0.000;2022-07-09T00:39:57;3.57;;;1.50;;
72533;SDS011;60553;0.000;0.000;2022-07-09T00:42:22;2.13;;;1.10;;
72533;SDS011;60553;0.000;0.000;2022-07-09T00:44:49;2.80;;;1.20;;
72533;SDS011;60553;0.000;0.000;2022-07-09T00:47:15;2.97;;;1.40;;
72533;SDS011;60553;0.000;0.000;2022-07-09T00:49:41;4.57;;;1.43;;
72533;SDS011;60553;0.000;0.000;2022-07-09T00:52:08;5.82;;;1.50;;
72533;SDS011;60553;0.000;0.000;2022-07-09T00:54:35;3.42;;;1.20;;
72533;SDS011;60553;0.000;0.000;2022-07-09T00:57:00;2.57;;;1.40;;
72533;SDS011;60553;0.000;0.000;2022-07-09T00:59:27;2.38;;;1.27;;
72533;SDS011;60553;0.000;0.000;2022-07-09T01:01:52;2.60;;;1.50;;
72533;SDS011;60553;0.000;0.000;2022-07-09T01:04:17;3.65;;;1.55;;
72533;SDS011;60553;0.000;0.000;2022-07-09T01:06:43;3.00;;;1.30;;
72533;SDS011;60553;0.000;0.000;2022-07-09T01:09:08;2.40;;;1.43;;
72533;SDS011;60553;0.000;0.000;2022-07-09T01:11:34;2.30;;;1.30;;
72533;SDS011;60553;0.000;0.000;2022-07-09T01:13:59;3.07;;;1.43;;
72533;SDS011;60553;0.000;0.000;2022-07-09T01:16:31;3.20;;;1.47;;
72533;SDS011;60553;0.000;0.000;2022-07-09T01:18:58;2.90;;;1.30;;
72533;SDS011;60553;0.000;0.000;2022-07-09T01:21:23;2.73;;;1.30;;
72533;SDS011;60553;0.000;0.000;2022-07-09T01:23:48;2.60;;;1.40;;
72533;SDS011;60553;0.000;0.000;2022-07-09T01:26:14;5.47;;;1.40;;
72533;SDS011;60553;0.000;0.000;2022-07-09T01:28:39;2.47;;;1.40;;
72533;SDS011;60553;0.000;0.000;2022-07-09T01:31:04;2.10;;;1.48;;
72533;SDS011;60553;0.000;0.000;2022-07-09T01:33:30;2.47;;;1.10;;
72533;SDS011;60553;0.000;0.000;2022-07-09T01:35:56;3.08;;;1.67;;
72533;SDS011;60553;0.000;0.000;2022-07-09T01:38:22;2.30;;;1.40;;
72533;SDS011;60553;0.000;0.000;2022-07-09T01:40:47;2.57;;;1.40;;
72533;SDS011;60553;0.000;0.000;2022-07-09T01:43:13;2.97;;;1.53;;
72533;SDS011;60553;0.000;0.000;2022-07-09T01:45:38;2.70;;;1.67;;
72533;SDS011;60553;0.000;0.000;2022-07-09T01:48:03;2.23;;;1.47;;
72533;SDS011;60553;0.000;0.000;2022-07-09T01:50:29;3.08;;;1.58;;
72533;SDS011;60553;0.000;0.000;2022-07-09T01:52:54;2.87;;;1.80;;
72533;SDS011;60553;0.000;0.000;2022-07-09T01:55:19;3.40;;;1.83;;
72533;SDS011;60553;0.000;0.000;2022-07-09T01:57:45;2.97;;;1.33;;
72533;SDS011;60553;0.000;0.000;2022-07-09T02:00:10;4.00;;;1.40;;
72533;SDS011;60553;0.000;0.000;2022-07-09T02:02:36;2.72;;;1.45;;
72533;SDS011;60553;0.000;0.000;2022-07-09T02:05:01;2.70;;;1.53;;
72533;SDS011;60553;0.000;0.000;2022-07-09T02:07:27;2.63;;;1.40;;
72533;SDS011;60553;0.000;0.000;2022-07-09T02:09:52;3.83;;;1.37;;
72533;SDS011;60553;0.000;0.000;2022-07-09T02:12:17;2.58;;;1.60;;
72533;SDS011;60553;0.000;0.000;2022-07-09T02:14:43;3.03;;;1.40;;
72533;SDS011;60553;0.000;0.000;2022-07-09T02:17:09;3.28;;;1.58;;
72533;SDS011;60553;0.000;0.000;2022-07-09T02:19:34;3.03;;;1.50;;
72533;SDS011;60553;0.000;0.000;2022-07-09T02:21:59;2.47;;;1.20;;
72533;SDS011;60553;0.000;0.000;2022-07-09T02:24:25;3.10;;;1.33;;
72533;SDS011;60553;0.000;0.000;2022-07-09T02:26:50;2.67;;;1.53;;
72533;SDS011;60553;0.000;0.000;2022-07-09T02:29:15;2.35;;;1.30;;
72533;SDS011;60553;0.000;0.000;2022-07-09T02:31:41;2.67;;;1.40;;
72533;SDS011;60553;0.000;0.000;2022-07-09T02:34:06;2.37;;;1.40;;
72533;SDS011;60553;0.000;0.000;2022-07-09T02:36:31;2.77;;;1.40;;
72533;SDS011;60553;0.000;0.000;2022-07-09T02:38:56;2.37;;;1.43;;
72533;SDS011;60553;0.000;0.000;2022-07-09T02:41:22;3.57;;;1.50;;
72533;SDS011;60553;0.000;0.000;2022-07-09T02:43:47;2.67;;;1.67;;
72533;SDS011;60553;0.000;0.000;2022-07-09T02:46:12;3.53;;;1.80;;
72533;SDS011;60553;0.000;0.000;2022-07-09T02:48:38;2.92;;;1.58;;
72533;SDS011;60553;0.000;0.000;2022-07-09T02:51:03;3.00;;;1.37;;
72533;SDS011;60553;0.000;0.000;2022-07-09T02:53:29;4.15;;;1.83;;
72533;SDS011;60553;0.000;0.000;2022-07-09T02:55:54;3.70;;;1.97;;
72533;SDS011;60553;0.000;0.000;2022-07-09T02:58:20;5.40;;;2.13;;
72533;SDS011;60553;0.000;0.000;2022-07-09T03:00:45;3.67;;;1.67;;
72533;SDS011;60553;0.000;0.000;2022-07-09T03:03:10;3.67;;;1.83;;
72533;SDS011;60553;0.000;0.000;2022-07-09T03:05:36;3.87;;;1.63;;
72533;SDS011;60553;0.000;0.000;2022-07-09T03:08:01;3.50;;;1.70;;
72533;SDS011;60553;0.000;0.000;2022-07-09T03:10:27;2.13;;;1.53;;
72533;SDS011;60553;0.000;0.000;2022-07-09T03:12:53;3.55;;;1.70;;
72533;SDS011;60553;0.000;0.000;2022-07-09T03:15:18;3.53;;;1.70;;
72533;SDS011;60553;0.000;0.000;2022-07-09T03:17:44;3.80;;;1.60;;
72533;SDS011;60553;0.000;0.000;2022-07-09T03:20:10;4.43;;;1.50;;
72533;SDS011;60553;0.000;0.000;2022-07-09T03:22:36;4.20;;;1.50;;
72533;SDS011;60553;0.000;0.000;2022-07-09T03:25:02;2.73;;;1.77;;
72533;SDS011;60553;0.000;0.000;2022-07-09T03:27:28;3.63;;;1.90;;
72533;SDS011;60553;0.000;0.000;2022-07-09T03:29:53;3.33;;;1.63;;
72533;SDS011;60553;0.000;0.000;2022-07-09T03:32:18;3.80;;;1.50;;
72533;SDS011;60553;0.000;0.000;2022-07-09T03:34:44;3.97;;;1.55;;
72533;SDS011;60553;0.000;0.000;2022-07-09T03:37:09;3.37;;;1.60;;
72533;SDS011;60553;0.000;0.000;2022-07-09T03:39:34;6.27;;;1.83;;
72533;SDS011;60553;0.000;0.000;2022-07-09T03:42:00;4.83;;;1.60;;
72533;SDS011;60553;0.000;0.000;2022-07-09T03:44:25;2.90;;;1.87;;
72533;SDS011;60553;0.000;0.000;2022-07-09T03:46:50;2.80;;;1.70;;
72533;SDS011;60553;0.000;0.000;2022-07-09T03:49:16;3.70;;;2.00;;
72533;SDS011;60553;0.000;0.000;2022-07-09T03:51:41;5.43;;;1.80;;
72533;SDS011;60553;0.000;0.000;2022-07-09T03:54:08;3.97;;;1.90;;
72533;SDS011;60553;0.000;0.000;2022-07-09T03:56:33;4.27;;;1.80;;
72533;SDS011;60553;0.000;0.000;2022-07-09T03:58:58;5.50;;;1.67;;
72533;SDS011;60553;0.000;0.000;2022-07-09T04:01:24;5.43;;;1.73;;
72533;SDS011;60553;0.000;0.000;2022-07-09T04:03:49;4.30;;;1.87;;
72533;SDS011;60553;0.000;0.000;2022-07-09T04:06:14;4.77;;;1.90;;
72533;SDS011;60553;0.000;0.000;2022-07-09T04:08:40;4.65;;;2.10;;
72533;SDS011;60553;0.000;0.000;2022-07-09T04:11:06;4.00;;;1.87;;
72533;SDS011;60553;0.000;0.000;2022-07-09T04:13:31;2.93;;;1.80;;
72533;SDS011;60553;0.000;0.000;2022-07-09T04:15:57;4.95;;;2.10;;
72533;SDS011;60553;0.000;0.000;2022-07-09T04:18:22;2.90;;;1.60;;
72533;SDS011;60553;0.000;0.000;2022-07-09T04:20:47;4.10;;;1.70;;
72533;SDS011;60553;0.000;0.000;2022-07-09T04:23:13;3.23;;;1.90;;
72533;SDS011;60553;0.000;0.000;2022-07-09T04:25:38;3.57;;;1.70;;
72533;SDS011;60553;0.000;0.000;2022-07-09T04:28:03;5.07;;;1.83;;
72533;SDS011;60553;0.000;0.000;2022-07-09T04:30:30;3.40;;;1.80;;
72533;SDS011;60553;0.000;0.000;2022-07-09T04:32:55;3.63;;;1.60;;
72533;SDS011;60553;0.000;0.000;2022-07-09T04:35:20;4.95;;;1.50;;
72533;SDS011;60553;0.000;0.000;2022-07-09T04:37:46;3.47;;;1.67;;
72533;SDS011;60553;0.000;0.000;2022-07-09T04:40:11;3.13;;;1.70;;
72533;SDS011;60553;0.000;0.000;2022-07-09T04:42:37;4.07;;;2.00;;
72533;SDS011;60553;0.000;0.000;2022-07-09T04:45:02;3.17;;;1.73;;
72533;SDS011;60553;0.000;0.000;2022-07-09T04:47:28;4.57;;;2.33;;
72533;SDS011;60553;0.000;0.000;2022-07-09T04:49:53;4.50;;;1.90;;
72533;SDS011;60553;0.000;0.000;2022-07-09T04:52:19;3.20;;;1.80;;
72533;SDS011;60553;0.000;0.000;2022-07-09T04:54:45;4.47;;;1.90;;
72533;SDS011;60553;0.000;0.000;2022-07-09T04:57:11;4.60;;;1.77;;
72533;SDS011;60553;0.000;0.000;2022-07-09T04:59:36;6.25;;;2.30;;
72533;SDS011;60553;0.000;0.000;2022-07-09T05:02:01;5.43;;;2.17;;
72533;SDS011;60553;0.000;0.000;2022-07-09T05:04:27;6.03;;;2.00;;
72533;SDS011;60553;0.000;0.000;2022-07-09T05:06:52;3.93;;;1.90;;
72533;SDS011;60553;0.000;0.000;2022-07-09T05:09:18;5.85;;;2.17;;
72533;SDS011;60553;0.000;0.000;2022-07-09T05:11:43;5.03;;;2.13;;
72533;SDS011;60553;0.000;0.000;2022-07-09T05:14:08;4.90;;;1.83;;
72533;SDS011;60553;0.000;0.000;2022-07-09T05:16:34;4.07;;;1.90;;
72533;SDS011;60553;0.000;0.000;2022-07-09T05:18:59;4.50;;;2.10;;
72533;SDS011;60553;0.000;0.000;2022-07-09T05:21:24;3.03;;;1.50;;
72533;SDS011;60553;0.000;0.000;2022-07-09T05:23:50;3.78;;;2.03;;
72533;SDS011;60553;0.000;0.000;2022-07-09T05:26:15;4.53;;;1.80;;
72533;SDS011;60553;0.000;0.000;2022-07-09T05:28:41;3.60;;;1.60;;
72533;SDS011;60553;0.000;0.000;2022-07-09T05:31:06;4.20;;;1.80;;
72533;SDS011;60553;0.000;0.000;2022-07-09T05:33:32;3.83;;;2.00;;
72533;SDS011;60553;0.000;0.000;2022-07-09T05:35:57;3.47;;;1.60;;
72533;SDS011;60553;0.000;0.000;2022-07-09T05:38:23;3.37;;;1.60;;
72533;SDS011;60553;0.000;0.000;2022-07-09T05:40:48;3.75;;;1.90;;
72533;SDS011;60553;0.000;0.000;2022-07-09T05:43:13;3.57;;;1.70;;
72533;SDS011;60553;0.000;0.000;2022-07-09T05:45:39;2.93;;;1.47;;
72533;SDS011;60553;0.000;0.000;2022-07-09T05:48:04;3.13;;;1.80;;
72533;SDS011;60553;0.000;0.000;2022-07-09T05:50:29;3.23;;;1.70;;
72533;SDS011;60553;0.000;0.000;2022-07-09T05:52:55;3.88;;;1.52;;
72533;SDS011;60553;0.000;0.000;2022-07-09T05:55:21;3.33;;;1.80;;
72533;SDS011;60553;0.000;0.000;2022-07-09T05:57:46;2.80;;;1.77;;
72533;SDS011;60553;0.000;0.000;2022-07-09T06:00:12;2.67;;;1.70;;
72533;SDS011;60553;0.000;0.000;2022-07-09T06:02:37;2.83;;;1.87;;
72533;SDS011;60553;0.000;0.000;2022-07-09T06:05:03;4.83;;;1.97;;
72533;SDS011;60553;0.000;0.000;2022-07-09T06:07:28;4.30;;;1.70;;
72533;SDS011;60553;0.000;0.000;2022-07-09T06:09:53;2.95;;;1.70;;
72533;SDS011;60553;0.000;0.000;2022-07-09T06:12:19;4.03;;;2.00;;
72533;SDS011;60553;0.000;0.000;2022-07-09T06:14:44;3.67;;;1.80;;
72533;SDS011;60553;0.000;0.000;2022-07-09T06:17:10;3.60;;;1.60;;
72533;SDS011;60553;0.000;0.000;2022-07-09T06:19:35;2.33;;;1.70;;
72533;SDS011;60553;0.000;0.000;2022-07-09T06:22:02;11.50;;;2.17;;
72533;SDS011;60553;0.000;0.000;2022-07-09T06:24:28;5.45;;;1.98;;
72533;SDS011;60553;0.000;0.000;2022-07-09T06:26:53;3.27;;;1.60;;
72533;SDS011;60553;0.000;0.000;2022-07-09T06:29:21;4.50;;;2.03;;
72533;SDS011;60553;0.000;0.000;2022-07-09T06:31:47;3.10;;;1.70;;
72533;SDS011;60553;0.000;0.000;2022-07-09T06:34:12;3.30;;;1.80;;
72533;SDS011;60553;0.000;0.000;2022-07-09T06:36:38;4.47;;;1.97;;
72533;SDS011;60553;0.000;0.000;2022-07-09T06:39:03;3.87;;;1.90;;
72533;SDS011;60553;0.000;0.000;2022-07-09T06:41:47;2.95;;;1.70;;
72533;SDS011;60553;0.000;0.000;2022-07-09T06:44:13;4.07;;;1.97;;
72533;SDS011;60553;0.000;0.000;2022-07-09T06:46:38;3.27;;;1.90;;
72533;SDS011;60553;0.000;0.000;2022-07-09T06:49:04;15.47;;;4.03;;
72533;SDS011;60553;0.000;0.000;2022-07-09T06:51:29;11.20;;;2.90;;
72533;SDS011;60553;0.000;0.000;2022-07-09T06:53:55;10.60;;;3.33;;
72533;SDS011;60553;0.000;0.000;2022-07-09T06:56:20;8.87;;;2.80;;
72533;SDS011;60553;0.000;0.000;2022-07-09T06:58:46;7.63;;;3.00;;
72533;SDS011;60553;0.000;0.000;2022-07-09T07:01:11;6.90;;;3.10;;
72533;SDS011;60553;0.000;0.000;2022-07-09T07:03:36;9.48;;;3.45;;
72533;SDS011;60553;0.000;0.000;2022-07-09T07:06:02;9.67;;;3.10;;
72533;SDS011;60553;0.000;0.000;2022-07-09T07:08:27;6.03;;;3.00;;
72533;SDS011;60553;0.000;0.000;2022-07-09T07:10:52;7.20;;;4.40;;
72533;SDS011;60553;0.000;0.000;2022-07-09T07:13:17;6.30;;;4.13;;
72533;SDS011;60553;0.000;0.000;2022-07-09T07:15:43;9.57;;;3.53;;
72533;SDS011;60553;0.000;0.000;2022-07-09T07:18:09;11.80;;;3.60;;
72533;SDS011;60553;0.000;0.000;2022-07-09T07:20:35;12.13;;;3.30;;
72533;SDS011;60553;0.000;0.000;2022-07-09T07:23:00;6.40;;;2.97;;
72533;SDS011;60553;0.000;0.000;2022-07-09T07:25:25;7.13;;;3.08;;
72533;SDS011;60553;0.000;0.000;2022-07-09T07:27:51;7.40;;;3.13;;
72533;SDS011;60553;0.000;0.000;2022-07-09T07:30:16;6.47;;;3.00;;
72533;SDS011;60553;0.000;0.000;2022-07-09T07:32:42;6.43;;;2.97;;
72533;SDS011;60553;0.000;0.000;2022-07-09T07:35:07;7.20;;;3.20;;
72533;SDS011;60553;0.000;0.000;2022-07-09T07:37:32;4.70;;;2.50;;
72533;SDS011;60553;0.000;0.000;2022-07-09T07:39:58;5.97;;;2.70;;
72533;SDS011;60553;0.000;0.000;2022-07-09T07:42:23;7.63;;;3.07;;
72533;SDS011;60553;0.000;0.000;2022-07-09T07:44:49;12.48;;;2.97;;
72533;SDS011;60553;0.000;0.000;2022-07-09T07:47:14;7.67;;;2.73;;
72533;SDS011;60553;0.000;0.000;2022-07-09T07:49:39;8.37;;;2.90;;
72533;SDS011;60553;0.000;0.000;2022-07-09T07:52:05;5.47;;;1.80;;
72533;SDS011;60553;0.000;0.000;2022-07-09T07:54:30;6.20;;;2.80;;
72533;SDS011;60553;0.000;0.000;2022-07-09T07:56:56;6.90;;;2.60;;
72533;SDS011;60553;0.000;0.000;2022-07-09T07:59:22;6.75;;;2.55;;
72533;SDS011;60553;0.000;0.000;2022-07-09T08:01:47;5.13;;;2.50;;
72533;SDS011;60553;0.000;0.000;2022-07-09T08:04:12;5.20;;;2.20;;
72533;SDS011;60553;0.000;0.000;2022-07-09T08:06:38;3.97;;;2.40;;
72533;SDS011;60553;0.000;0.000;2022-07-09T08:09:03;8.73;;;2.30;;
72533;SDS011;60553;0.000;0.000;2022-07-09T08:11:28;5.53;;;2.30;;
72533;SDS011;60553;0.000;0.000;2022-07-09T08:13:54;7.80;;;2.40;;
72533;SDS011;60553;0.000;0.000;2022-07-09T08:16:19;4.60;;;2.50;;
72533;SDS011;60553;0.000;0.000;2022-07-09T08:18:45;6.17;;;2.73;;
72533;SDS011;60553;0.000;0.000;2022-07-09T08:21:10;6.37;;;2.37;;
72533;SDS011;60553;0.000;0.000;2022-07-09T08:23:35;7.13;;;2.87;;
72533;SDS011;60553;0.000;0.000;2022-07-09T08:26:16;4.47;;;2.25;;
72533;SDS011;60553;0.000;0.000;2022-07-09T08:28:42;3.73;;;1.93;;
72533;SDS011;60553;0.000;0.000;2022-07-09T08:31:08;5.53;;;2.15;;
72533;SDS011;60553;0.000;0.000;2022-07-09T08:33:33;9.00;;;2.33;;
72533;SDS011;60553;0.000;0.000;2022-07-09T08:35:59;4.23;;;2.17;;
72533;SDS011;60553;0.000;0.000;2022-07-09T08:38:24;5.40;;;2.40;;
72533;SDS011;60553;0.000;0.000;2022-07-09T08:40:49;6.67;;;2.33;;
72533;SDS011;60553;0.000;0.000;2022-07-09T08:43:15;5.20;;;2.20;;
72533;SDS011;60553;0.000;0.000;2022-07-09T08:45:42;3.70;;;1.80;;
72533;SDS011;60553;0.000;0.000;2022-07-09T08:48:08;3.42;;;1.98;;
72533;SDS011;60553;0.000;0.000;2022-07-09T08:50:34;5.83;;;1.97;;
72533;SDS011;60553;0.000;0.000;2022-07-09T08:52:59;5.88;;;2.20;;
72533;SDS011;60553;0.000;0.000;2022-07-09T08:55:26;4.35;;;2.30;;
72533;SDS011;60553;0.000;0.000;2022-07-09T08:57:53;5.93;;;1.88;;
72533;SDS011;60553;0.000;0.000;2022-07-09T09:00:18;5.87;;;1.90;;
72533;SDS011;60553;0.000;0.000;2022-07-09T09:02:44;3.93;;;2.33;;
72533;SDS011;60553;0.000;0.000;2022-07-09T09:05:11;5.63;;;2.10;;
72533;SDS011;60553;0.000;0.000;2022-07-09T09:07:37;3.25;;;2.00;;
72533;SDS011;60553;0.000;0.000;2022-07-09T09:10:02;4.63;;;2.20;;
72533;SDS011;60553;0.000;0.000;2022-07-09T09:12:28;4.22;;;2.03;;
72533;SDS011;60553;0.000;0.000;2022-07-09T09:14:53;4.80;;;2.03;;
72533;SDS011;60553;0.000;0.000;2022-07-09T09:17:19;3.13;;;2.00;;
72533;SDS011;60553;0.000;0.000;2022-07-09T09:19:44;4.53;;;1.87;;
72533;SDS011;60553;0.000;0.000;2022-07-09T09:22:10;3.07;;;1.97;;
72533;SDS011;60553;0.000;0.000;2022-07-09T09:24:35;4.40;;;1.92;;
72533;SDS011;60553;0.000;0.000;2022-07-09T09:27:01;2.83;;;1.80;;
72533;SDS011;60553;0.000;0.000;2022-07-09T09:29:27;2.67;;;1.67;;
72533;SDS011;60553;0.000;0.000;2022-07-09T09:31:53;4.33;;;1.73;;
72533;SDS011;60553;0.000;0.000;2022-07-09T09:34:19;3.17;;;2.00;;
72533;SDS011;60553;0.000;0.000;2022-07-09T09:36:45;4.20;;;1.90;;
72533;SDS011;60553;0.000;0.000;2022-07-09T09:41:47;4.07;;;2.20;;
72533;SDS011;60553;0.000;0.000;2022-07-09T09:44:16;4.50;;;2.00;;
72533;SDS011;60553;0.000;0.000;2022-07-09T09:46:42;5.10;;;2.30;;
72533;SDS011;60553;0.000;0.000;2022-07-09T09:49:09;3.25;;;1.85;;
72533;SDS011;60553;0.000;0.000;2022-07-09T09:51:37;9.95;;;2.33;;
72533;SDS011;60553;0.000;0.000;2022-07-09T09:54:04;7.70;;;2.30;;
72533;SDS011;60553;0.000;0.000;2022-07-09T09:56:30;5.97;;;2.33;;
72533;SDS011;60553;0.000;0.000;2022-07-09T09:58:58;6.63;;;2.47;;
72533;SDS011;60553;0.000;0.000;2022-07-09T10:01:24;5.40;;;2.80;;
72533;SDS011;60553;0.000;0.000;2022-07-09T10:03:50;6.40;;;2.65;;
72533;SDS011;60553;0.000;0.000;2022-07-09T10:06:15;7.17;;;2.43;;
72533;SDS011;60553;0.000;0.000;2022-07-09T10:08:41;5.67;;;2.43;;
72533;SDS011;60553;0.000;0.000;2022-07-09T10:11:06;4.87;;;2.30;;
72533;SDS011;60553;0.000;0.000;2022-07-09T10:13:31;5.40;;;2.00;;
72533;SDS011;60553;0.000;0.000;2022-07-09T10:15:56;4.30;;;2.30;;
72533;SDS011;60553;0.000;0.000;2022-07-09T10:18:23;4.78;;;2.10;;
72533;SDS011;60553;0.000;0.000;2022-07-09T10:20:54;4.63;;;2.40;;
72533;SDS011;60553;0.000;0.000;2022-07-09T10:23:21;4.90;;;2.25;;
72533;SDS011;60553;0.000;0.000;2022-07-09T10:25:47;4.38;;;2.13;;
72533;SDS011;60553;0.000;0.000;2022-07-09T10:28:15;4.75;;;2.10;;
72533;SDS011;60553;0.000;0.000;2022-07-09T10:30:41;5.23;;;1.80;;
72533;SDS011;60553;0.000;0.000;2022-07-09T10:33:07;5.28;;;2.05;;
72533;SDS011;60553;0.000;0.000;2022-07-09T10:38:08;3.50;;;1.65;;
72533;SDS011;60553;0.000;0.000;2022-07-09T10:40:38;5.03;;;2.10;;
72533;SDS011;60553;0.000;0.000;2022-07-09T10:43:07;3.50;;;1.80;;
72533;SDS011;60553;0.000;0.000;2022-07-09T10:48:01;3.80;;;1.83;;
72533;SDS011;60553;0.000;0.000;2022-07-09T10:50:28;3.20;;;1.75;;
72533;SDS011;60553;0.000;0.000;2022-07-09T10:52:54;3.72;;;2.10;;
72533;SDS011;60553;0.000;0.000;2022-07-09T10:55:21;3.63;;;1.53;;
72533;SDS011;60553;0.000;0.000;2022-07-09T10:57:50;5.32;;;1.65;;
72533;SDS011;60553;0.000;0.000;2022-07-09T11:00:16;3.88;;;1.88;;
72533;SDS011;60553;0.000;0.000;2022-07-09T11:02:54;2.50;;;1.63;;
72533;SDS011;60553;0.000;0.000;2022-07-09T11:05:30;3.75;;;1.80;;
72533;SDS011;60553;0.000;0.000;2022-07-09T11:08:00;3.78;;;1.70;;
72533;SDS011;60553;0.000;0.000;2022-07-09T11:10:27;2.50;;;1.65;;
72533;SDS011;60553;0.000;0.000;2022-07-09T11:12:54;4.32;;;1.70;;
72533;SDS011;60553;0.000;0.000;2022-07-09T11:15:24;3.53;;;1.70;;
72533;SDS011;60553;0.000;0.000;2022-07-09T11:18:12;5.60;;;1.90;;
72533;SDS011;60553;0.000;0.000;2022-07-09T11:20:44;3.40;;;1.88;;
72533;SDS011;60553;0.000;0.000;2022-07-09T11:23:10;3.70;;;1.80;;
72533;SDS011;60553;0.000;0.000;2022-07-09T11:25:40;3.20;;;1.85;;
72533;SDS011;60553;0.000;0.000;2022-07-09T11:28:05;2.63;;;1.70;;
72533;SDS011;60553;0.000;0.000;2022-07-09T11:30:32;2.97;;;1.65;;
72533;SDS011;60553;0.000;0.000;2022-07-09T11:32:57;2.50;;;1.60;;
72533;SDS011;60553;0.000;0.000;2022-07-09T11:35:26;3.50;;;1.80;;
72533;SDS011;60553;0.000;0.000;2022-07-09T11:37:53;3.27;;;1.90;;
72533;SDS011;60553;0.000;0.000;2022-07-09T11:40:19;3.42;;;2.00;;
72533;SDS011;60553;0.000;0.000;2022-07-09T11:42:45;3.38;;;1.95;;
72533;SDS011;60553;0.000;0.000;2022-07-09T11:45:10;2.00;;;1.67;;
72533;SDS011;60553;0.000;0.000;2022-07-09T11:47:37;5.18;;;2.13;;
72533;SDS011;60553;0.000;0.000;2022-07-09T11:50:11;4.53;;;2.13;;
72533;SDS011;60553;0.000;0.000;2022-07-09T11:52:46;3.37;;;2.03;;
72533;SDS011;60553;0.000;0.000;2022-07-09T11:55:16;4.10;;;1.75;;
72533;SDS011;60553;0.000;0.000;2022-07-09T11:57:53;3.45;;;1.90;;
72533;SDS011;60553;0.000;0.000;2022-07-09T12:00:39;7.90;;;2.30;;
72533;SDS011;60553;0.000;0.000;2022-07-09T12:03:05;4.40;;;2.35;;
72533;SDS011;60553;0.000;0.000;2022-07-09T12:05:32;10.07;;;2.30;;
72533;SDS011;60553;0.000;0.000;2022-07-09T12:08:02;8.40;;;2.30;;
72533;SDS011;60553;0.000;0.000;2022-07-09T12:10:31;7.20;;;2.70;;
72533;SDS011;60553;0.000;0.000;2022-07-09T12:12:58;7.15;;;2.70;;
72533;SDS011;60553;0.000;0.000;2022-07-09T12:15:24;7.50;;;2.67;;
72533;SDS011;60553;0.000;0.000;2022-07-09T12:17:54;5.47;;;2.40;;
72533;SDS011;60553;0.000;0.000;2022-07-09T12:20:23;4.80;;;2.40;;
72533;SDS011;60553;0.000;0.000;2022-07-09T12:22:50;6.57;;;2.38;;
72533;SDS011;60553;0.000;0.000;2022-07-09T12:25:16;4.85;;;2.40;;
72533;SDS011;60553;0.000;0.000;2022-07-09T12:27:42;3.83;;;2.33;;
72533;SDS011;60553;0.000;0.000;2022-07-09T12:30:08;4.15;;;2.40;;
72533;SDS011;60553;0.000;0.000;2022-07-09T12:32:34;4.80;;;2.28;;
72533;SDS011;60553;0.000;0.000;2022-07-09T12:34:59;6.00;;;1.80;;
72533;SDS011;60553;0.000;0.000;2022-07-09T12:37:25;11.97;;;2.40;;
72533;SDS011;60553;0.000;0.000;2022-07-09T12:39:50;10.67;;;3.03;;
72533;SDS011;60553;0.000;0.000;2022-07-09T12:42:17;10.20;;;2.55;;
72533;SDS011;60553;0.000;0.000;2022-07-09T12:44:43;8.50;;;2.40;;
72533;SDS011;60553;0.000;0.000;2022-07-09T12:47:09;11.97;;;2.97;;
72533;SDS011;60553;0.000;0.000;2022-07-09T12:49:34;8.60;;;2.70;;
72533;SDS011;60553;0.000;0.000;2022-07-09T12:52:00;7.07;;;2.42;;
72533;SDS011;60553;0.000;0.000;2022-07-09T12:54:25;7.40;;;2.30;;
72533;SDS011;60553;0.000;0.000;2022-07-09T12:56:50;9.77;;;2.57;;
72533;SDS011;60553;0.000;0.000;2022-07-09T12:59:19;11.37;;;2.63;;
72533;SDS011;60553;0.000;0.000;2022-07-09T13:01:44;10.38;;;2.55;;
72533;SDS011;60553;0.000;0.000;2022-07-09T13:04:09;11.93;;;2.83;;
72533;SDS011;60553;0.000;0.000;2022-07-09T13:06:35;6.77;;;2.37;;
72533;SDS011;60553;0.000;0.000;2022-07-09T13:09:01;12.83;;;3.17;;
72533;SDS011;60553;0.000;0.000;2022-07-09T13:11:27;14.02;;;3.35;;
72533;SDS011;60553;0.000;0.000;2022-07-09T13:13:53;9.23;;;3.25;;
72533;SDS011;60553;0.000;0.000;2022-07-09T13:16:18;7.60;;;3.57;;
72533;SDS011;60553;0.000;0.000;2022-07-09T13:18:43;14.70;;;3.90;;
72533;SDS011;60553;0.000;0.000;2022-07-09T13:21:09;24.05;;;3.85;;
72533;SDS011;60553;0.000;0.000;2022-07-09T13:23:34;10.57;;;3.07;;
72533;SDS011;60553;0.000;0.000;2022-07-09T13:26:00;8.07;;;3.13;;
72533;SDS011;60553;0.000;0.000;2022-07-09T13:28:25;8.30;;;3.60;;
72533;SDS011;60553;0.000;0.000;2022-07-09T13:30:51;15.23;;;3.03;;
72533;SDS011;60553;0.000;0.000;2022-07-09T13:33:16;7.63;;;3.63;;
72533;SDS011;60553;0.000;0.000;2022-07-09T13:35:41;8.07;;;3.17;;
72533;SDS011;60553;0.000;0.000;2022-07-09T13:38:07;10.97;;;3.43;;
72533;SDS011;60553;0.000;0.000;2022-07-09T13:40:32;11.23;;;3.50;;
72533;SDS011;60553;0.000;0.000;2022-07-09T13:42:58;11.50;;;3.40;;
72533;SDS011;60553;0.000;0.000;2022-07-09T13:45:23;9.03;;;3.70;;
72533;SDS011;60553;0.000;0.000;2022-07-09T13:47:48;11.13;;;4.27;;
72533;SDS011;60553;0.000;0.000;2022-07-09T13:50:14;9.83;;;3.83;;
72533;SDS011;60553;0.000;0.000;2022-07-09T13:52:39;7.57;;;3.77;;
72533;SDS011;60553;0.000;0.000;2022-07-09T13:55:04;8.85;;;3.78;;
72533;SDS011;60553;0.000;0.000;2022-07-09T13:57:30;9.50;;;4.03;;
72533;SDS011;60553;0.000;0.000;2022-07-09T13:59:55;7.33;;;3.40;;
72533;SDS011;60553;0.000;0.000;2022-07-09T14:02:21;5.78;;;3.53;;
72533;SDS011;60553;0.000;0.000;2022-07-09T14:04:47;8.53;;;3.53;;
72533;SDS011;60553;0.000;0.000;2022-07-09T14:07:15;12.68;;;3.40;;
72533;SDS011;60553;0.000;0.000;2022-07-09T14:09:41;9.37;;;3.23;;
72533;SDS011;60553;0.000;0.000;2022-07-09T14:12:07;6.97;;;2.93;;
72533;SDS011;60553;0.000;0.000;2022-07-09T14:14:33;7.38;;;3.25;;
72533;SDS011;60553;0.000;0.000;2022-07-09T14:16:59;10.20;;;3.43;;
72533;SDS011;60553;0.000;0.000;2022-07-09T14:19:24;8.55;;;3.15;;
72533;SDS011;60553;0.000;0.000;2022-07-09T14:21:50;7.73;;;3.40;;
72533;SDS011;60553;0.000;0.000;2022-07-09T14:24:15;7.93;;;3.20;;
72533;SDS011;60553;0.000;0.000;2022-07-09T14:26:40;7.83;;;3.00;;
72533;SDS011;60553;0.000;0.000;2022-07-09T14:29:09;11.07;;;2.90;;
72533;SDS011;60553;0.000;0.000;2022-07-09T14:31:35;8.05;;;2.95;;
72533;SDS011;60553;0.000;0.000;2022-07-09T14:34:00;4.90;;;2.40;;
72533;SDS011;60553;0.000;0.000;2022-07-09T14:36:26;24.70;;;4.03;;
72533;SDS011;60553;0.000;0.000;2022-07-09T14:38:51;12.77;;;3.00;;
72533;SDS011;60553;0.000;0.000;2022-07-09T14:41:17;5.47;;;2.50;;
72533;SDS011;60553;0.000;0.000;2022-07-09T14:43:43;6.45;;;2.40;;
72533;SDS011;60553;0.000;0.000;2022-07-09T14:46:08;8.77;;;2.80;;
72533;SDS011;60553;0.000;0.000;2022-07-09T14:48:34;4.43;;;2.20;;
72533;SDS011;60553;0.000;0.000;2022-07-09T14:51:00;5.53;;;2.17;;
72533;SDS011;60553;0.000;0.000;2022-07-09T14:53:25;6.40;;;2.40;;
72533;SDS011;60553;0.000;0.000;2022-07-09T14:55:50;4.37;;;2.40;;
72533;SDS011;60553;0.000;0.000;2022-07-09T14:58:16;4.97;;;2.40;;
72533;SDS011;60553;0.000;0.000;2022-07-09T15:00:41;4.10;;;1.90;;